KCRE

Grand Strand Airport

North Myrtle Beach, South Carolina, USA
METAR KCRE 171553Z 19011KT 10SM CLR 31/25 A3016 RMK AO1 SLP215 T03060250
Observed Flight Rules
Aug-17 @ 15:53 UTC (58 minutes ago) Visual Flight Rules
Wind Visibility Clouds
190° at 11 knots 10 miles
  • Clear skies
Temperatures Readings
Current 31°C / 88°F
Dewpoint 25°C / 77°F
Humidity 70%
Altimeter 30.16" Hg
Pressure 1021.5 hPa
Elevation 10
METAR KCRE 171553Z 19011KT 10SM CLR 31/25 A3016 RMK AO1 SLP215 T03060250
Observed Flight Rules
Aug-17 @ 15:53 UTC
(58 minutes ago)
VFR
Wind Visibility
190° at 11 knots 10 miles
Clouds
  • Clear skies
Temperature Dewpoint
31°C / 88°F 25°C / 77°F
Humidity Altimeter Pressure
70% 30.16" Hg 1021.5 hPa